| time (UTC) | temp C | wind direction | speed KPH | gust KPH | rain 1hr cm | rain 24hr cm | rain mn cm | humidity % | barometer mb |
| 20260505140217 | 2 | 15 | 3.2 | 6.4 | 0.00 | 0.25 | 0.25 | 93 | 1014.1 |
| 20260505130141 | 1 | 80 | 1.6 | 6.4 | 0.00 | 0.25 | 0.25 | 97 | 1014.1 |
| 20260505124630 | 1 | 268 | 4.8 | 6.4 | 0.00 | 0.25 | 0.25 | 98 | 1014.2 |
| 20260505124127 | 1 | 208 | 3.2 | 4.8 | 0.00 | 0.25 | 0.25 | 98 | 1013.9 |
| 20260505123623 | 0 | 299 | 4.8 | 6.4 | 0.00 | 0.25 | 0.25 | 98 | 1014.1 |
| 20260505123120 | 0 | 218 | 3.2 | 3.2 | 0.00 | 0.25 | 0.25 | 98 | 1013.9 |
| 20260505122617 | 0 | 279 | 6.4 | 6.4 | 0.00 | 0.25 | 0.25 | 98 | 1013.8 |
| 20260505122114 | 0 | 248 | 3.2 | 4.8 | 0.00 | 0.25 | 0.25 | 98 | 1013.9 |
| 20260505121610 | 0 | 238 | 3.2 | 4.8 | 0.00 | 0.25 | 0.25 | 98 | 1014.1 |
| 20260505121107 | 0 | 238 | 3.2 | 6.4 | 0.00 | 0.25 | 0.25 | 98 | 1013.8 |
| 20260505120603 | 0 | 105 | 1.6 | 4.8 | 0.00 | 0.25 | 0.25 | 98 | 1014.1 |
| 20260505120059 | 0 | 338 | 1.6 | 4.8 | 0.00 | 0.25 | 0.25 | 98 | 1013.9 |
| 20260505115554 | 0 | 145 | 1.6 | 4.8 | 0.00 | 0.25 | 0.25 | 98 | 1013.8 |
| 20260505115051 | 0 | 260 | 6.4 | 9.7 | 0.00 | 0.25 | 0.25 | 98 | 1013.7 |
| 20260505114548 | 0 | 39 | 1.6 | 3.2 | 0.00 | 0.25 | 0.25 | 98 | 1013.9 |
| 20260505114045 | 0 | 250 | 1.6 | 4.8 | 0.00 | 0.25 | 0.25 | 98 | 1013.8 |
| 20260505113541 | 0 | 78 | 0.0 | 3.2 | 0.00 | 0.25 | 0.25 | 98 | 1013.7 |
| 20260505113038 | 0 | 232 | 1.6 | 3.2 | 0.00 | 0.25 | 0.25 | 98 | 1013.8 |
| 20260505112534 | 0 | 84 | 0.0 | 4.8 | 0.00 | 0.25 | 0.25 | 98 | 1013.9 |
| 20260505112033 | 0 | 59 | 0.0 | 1.6 | 0.00 | 0.25 | 0.25 | 97 | 1014.1 |
| 20260505111531 | 0 | 123 | 1.6 | 3.2 | 0.00 | 0.25 | 0.25 | 97 | 1013.8 |
| 20260505111028 | 0 | 78 | 1.6 | 3.2 | 0.00 | 0.25 | 0.25 | 97 | 1014.3 |
| 20260505110525 | 0 | 86 | 0.0 | 3.2 | 0.00 | 0.25 | 0.25 | 97 | 1014.2 |
| 20260505101957 | 1 | 138 | 3.2 | 4.8 | 0.00 | 0.25 | 0.25 | 97 | 1014.3 |
| 20260505101455 | 1 | 247 | 3.2 | 9.7 | 0.00 | 0.25 | 0.25 | 97 | 1014.1 |
| 20260505100951 | 1 | 250 | 3.2 | 4.8 | 0.00 | 0.25 | 0.25 | 97 | 1013.9 |
| 20260505100449 | 1 | 89 | 1.6 | 9.7 | 0.00 | 0.25 | 0.25 | 97 | 1013.8 |
| 20260505095945 | 1 | 211 | 1.6 | 9.7 | 0.00 | 0.25 | 0.25 | 97 | 1013.9 |
| 20260505095442 | 1 | 190 | 0.0 | 9.7 | 0.00 | 0.25 | 0.25 | 97 | 1014.2 |
| 20260505094938 | 1 | 248 | 4.8 | 6.4 | 0.00 | 0.25 | 0.25 | 97 | 1014.5 |
| 20260505094435 | 1 | 223 | 3.2 | 4.8 | 0.00 | 0.25 | 0.25 | 96 | 1014.5 |
| 20260505093931 | 1 | 52 | 1.6 | 3.2 | 0.13 | 0.25 | 0.25 | 96 | 1014.7 |
| 20260505093428 | 1 | 51 | 3.2 | 6.4 | 0.13 | 0.25 | 0.25 | 96 | 1014.2 |
| 20260505092925 | 1 | 81 | 3.2 | 4.8 | 0.00 | 0.23 | 0.23 | 96 | 1014.3 |
| 20260505092423 | 1 | 254 | 3.2 | 6.4 | 0.18 | 0.23 | 0.23 | 96 | 1014.5 |
| 20260505091920 | 1 | 229 | 3.2 | 6.4 | 0.18 | 0.23 | 0.23 | 96 | 1014.6 |
| 20260505091417 | 1 | 95 | 1.6 | 9.7 | 0.18 | 0.20 | 0.20 | 96 | 1014.6 |
| 20260505090915 | 1 | 203 | 3.2 | 12.9 | 0.30 | 0.20 | 0.20 | 95 | 1015.1 |
| 20260505090413 | 1 | 183 | 3.2 | 12.9 | 0.13 | 0.18 | 0.18 | 95 | 1014.7 |
| 20260505085910 | 1 | 235 | 8.0 | 11.3 | 0.00 | 0.15 | 0.15 | 95 | 1014.7 |
| 20260505085408 | 1 | 284 | 6.4 | 12.9 | 0.18 | 0.15 | 0.15 | 95 | 1015.1 |
| 20260505084906 | 1 | 153 | 1.6 | 9.7 | 0.18 | 0.15 | 0.15 | 95 | 1014.7 |
| 20260505084404 | 1 | 324 | 6.4 | 12.9 | 0.13 | 0.13 | 0.13 | 94 | 1015.0 |
| 20260505083901 | 1 | 279 | 4.8 | 9.7 | 0.13 | 0.13 | 0.13 | 94 | 1015.0 |
| 20260505083359 | 1 | 136 | 3.2 | 9.7 | 0.18 | 0.10 | 0.10 | 94 | 1015.0 |
| 20260505082855 | 1 | 320 | 3.2 | 11.3 | 0.18 | 0.10 | 0.10 | 93 | 1015.0 |
| 20260505082351 | 1 | 261 | 4.8 | 14.5 | 0.13 | 0.08 | 0.08 | 93 | 1014.9 |
| 20260505081848 | 1 | 221 | 8.0 | 12.9 | 0.13 | 0.08 | 0.08 | 92 | 1015.1 |
| 20260505081344 | 1 | 253 | 8.0 | 11.3 | 0.00 | 0.05 | 0.05 | 92 | 1015.2 |
| 20260505080841 | 1 | 190 | 6.4 | 11.3 | 0.00 | 0.05 | 0.05 | 92 | 1015.1 |
| 20260505080337 | 1 | 242 | 6.4 | 11.3 | 0.00 | 0.05 | 0.05 | 92 | 1015.4 |
| 20260505075833 | 1 | 343 | 4.8 | 11.3 | 0.00 | 0.05 | 0.05 | 92 | 1015.2 |
| 20260505075330 | 1 | 173 | 6.4 | 12.9 | 0.18 | 0.05 | 0.05 | 93 | 1015.6 |
| 20260505074827 | 1 | 208 | 6.4 | 9.7 | 0.18 | 0.05 | 0.05 | 93 | 1015.4 |
| 20260505074324 | 1 | 228 | 6.4 | 12.9 | 0.00 | 0.03 | 0.03 | 94 | 1015.8 |
| 20260505073822 | 1 | 246 | 6.4 | 9.7 | 0.00 | 0.03 | 0.03 | 94 | 1015.6 |
| 20260505073320 | 1 | 174 | 6.4 | 9.7 | 0.00 | 0.03 | 0.03 | 94 | 1015.5 |
| 20260505072816 | 1 | 226 | 6.4 | 14.5 | 0.00 | 0.03 | 0.03 | 94 | 1015.6 |
| 20260505072312 | 1 | 252 | 6.4 | 11.3 | 0.00 | 0.03 | 0.03 | 94 | 1015.5 |
| 20260505071808 | 1 | 139 | 6.4 | 14.5 | 0.00 | 0.03 | 0.03 | 94 | 1015.5 |
| 20260505071305 | 2 | 269 | 6.4 | 11.3 | 0.00 | 0.03 | 0.03 | 94 | 1015.5 |
| 20260505070803 | 2 | 241 | 6.4 | 11.3 | 0.00 | 0.03 | 0.03 | 94 | 1015.8 |
| 20260505070259 | 2 | 311 | 6.4 | 9.7 | 0.00 | 0.03 | 0.03 | 94 | 1015.5 |
| 20260505065754 | 2 | 282 | 4.8 | 9.7 | 0.13 | 0.03 | 0.03 | 93 | 1015.6 |
| 20260505065252 | 2 | 257 | 6.4 | 9.7 | 0.13 | 0.03 | 0.03 | 93 | 1015.4 |
| 20260505064749 | 2 | 304 | 3.2 | 9.7 | 0.00 | 0.00 | 0.00 | 93 | 1015.6 |
| 20260505064246 | 2 | 208 | 3.2 | 9.7 | 0.00 | 0.00 | 0.00 | 94 | 1015.6 |
| 20260505063744 | 2 | 198 | 3.2 | 6.4 | 0.00 | 0.00 | 0.00 | 94 | 1015.6 |
| 20260505063240 | 2 | 231 | 3.2 | 6.4 | 0.00 | 0.00 | 0.00 | 94 | 1015.5 |
| 20260505062736 | 2 | 227 | 4.8 | 9.7 | 0.00 | 0.00 | 0.00 | 94 | 1015.8 |
| 20260505062234 | 2 | 216 | 6.4 | 12.9 | 0.00 | 0.00 | 0.00 | 94 | 1015.6 |
| 20260505061731 | 2 | 206 | 6.4 | 11.3 | 0.00 | 0.00 | 0.00 | 94 | 1015.5 |
| 20260505061229 | 2 | 205 | 6.4 | 6.4 | 0.00 | 0.00 | 0.00 | 94 | 1015.6 |
| 20260505060726 | 2 | 204 | 8.0 | 12.9 | 0.00 | 0.00 | 0.00 | 94 | 1015.5 |
| 20260505060223 | 2 | 201 | 12.9 | 16.1 | 0.18 | 0.00 | 0.00 | 94 | 1015.6 |
| 20260505055718 | 2 | 204 | 6.4 | 9.7 | 0.18 | 0.79 | 0.79 | 94 | 1015.8 |
| 20260505055215 | 2 | 221 | 9.7 | 12.9 | 0.00 | 0.76 | 0.76 | 95 | 1015.9 |
| 20260505054712 | 2 | 234 | 8.0 | 11.3 | 0.00 | 0.76 | 0.76 | 96 | 1015.6 |
| 20260505054210 | 2 | 223 | 8.0 | 12.9 | 0.00 | 0.76 | 0.76 | 96 | 1015.9 |
| 20260505053708 | 2 | 214 | 8.0 | 12.9 | 0.13 | 0.76 | 0.76 | 96 | 1015.9 |
| 20260505053204 | 2 | 205 | 6.4 | 11.3 | 0.13 | 0.76 | 0.76 | 96 | 1015.8 |
| 20260505052701 | 2 | 214 | 8.0 | 11.3 | 0.00 | 0.74 | 0.74 | 96 | 1015.6 |
| 20260505052158 | 2 | 232 | 11.3 | 17.7 | 0.18 | 0.74 | 0.74 | 96 | 1016.2 |
| 20260505051655 | 2 | 206 | 9.7 | 14.5 | 0.18 | 0.74 | 0.74 | 96 | 1015.9 |
| 20260505051153 | 2 | 226 | 8.0 | 12.9 | 0.00 | 0.71 | 0.71 | 97 | 1015.9 |
| 20260505050650 | 2 | 207 | 9.7 | 12.9 | 0.00 | 0.71 | 0.71 | 97 | 1016.2 |
| 20260505050144 | 2 | 195 | 9.7 | 11.3 | 0.13 | 0.71 | 0.71 | 96 | 1016.3 |
| 20260505041619 | 2 | 211 | 12.9 | 17.7 | 0.00 | 0.69 | 0.69 | 95 | 1015.8 |
| 20260505041116 | 2 | 167 | 14.5 | 17.7 | 0.00 | 0.69 | 0.69 | 95 | 1015.8 |
| 20260505040613 | 2 | 183 | 6.4 | 17.7 | 0.00 | 0.69 | 0.69 | 95 | 1015.6 |
| 20260505040110 | 2 | 206 | 11.3 | 17.7 | 0.00 | 0.69 | 0.69 | 95 | 1015.9 |
| 20260505035606 | 2 | 191 | 9.7 | 14.5 | 0.00 | 0.69 | 0.69 | 95 | 1015.8 |
| 20260505035103 | 2 | 162 | 8.0 | 11.3 | 0.00 | 0.69 | 0.69 | 94 | 1015.8 |
| 20260505034559 | 2 | 158 | 6.4 | 11.3 | 0.00 | 0.69 | 0.69 | 94 | 1015.8 |
| 20260505034056 | 2 | 182 | 8.0 | 9.7 | 0.00 | 0.69 | 0.69 | 94 | 1015.6 |
| 20260505033553 | 2 | 186 | 6.4 | 9.7 | 0.00 | 0.69 | 0.69 | 94 | 1015.8 |
| 20260505033052 | 2 | 180 | 8.0 | 9.7 | 0.00 | 0.69 | 0.69 | 93 | 1015.6 |
| 20260505032549 | 2 | 186 | 12.9 | 14.5 | 0.00 | 0.69 | 0.69 | 92 | 1015.8 |
| 20260505032045 | 2 | 143 | 6.4 | 9.7 | 0.00 | 0.69 | 0.69 | 93 | 1015.8 |
| 20260505031542 | 2 | 160 | 4.8 | 11.3 | 0.00 | 0.69 | 0.69 | 93 | 1015.8 |
| 20260505031039 | 2 | 155 | 6.4 | 9.7 | 0.00 | 0.69 | 0.69 | 93 | 1015.6 |
| 20260505030536 | 2 | 122 | 6.4 | 11.3 | 0.00 | 0.69 | 0.69 | 93 | 1015.5 |
| 20260505030032 | 2 | 156 | 8.0 | 12.9 | 0.00 | 0.69 | 0.69 | 93 | 1015.5 |
| 20260505025528 | 2 | 178 | 9.7 | 11.3 | 0.00 | 0.69 | 0.69 | 92 | 1015.8 |
| 20260505025027 | 3 | 117 | 3.2 | 4.8 | 0.00 | 0.69 | 0.69 | 92 | 1015.2 |
| 20260505024523 | 3 | 154 | 9.7 | 12.9 | 0.00 | 0.69 | 0.69 | 91 | 1015.4 |
| 20260505024020 | 3 | 122 | 4.8 | 6.4 | 0.00 | 0.69 | 0.69 | 91 | 1015.2 |
| 20260505023517 | 3 | 121 | 3.2 | 9.7 | 0.00 | 0.69 | 0.69 | 91 | 1015.5 |
| 20260505023015 | 3 | 98 | 4.8 | 6.4 | 0.00 | 0.69 | 0.69 | 90 | 1015.2 |
| 20260505022513 | 3 | 155 | 8.0 | 11.3 | 0.00 | 0.69 | 0.69 | 90 | 1015.4 |
| 20260505022010 | 3 | 155 | 3.2 | 11.3 | 0.00 | 0.69 | 0.69 | 90 | 1015.2 |
| 20260505021506 | 3 | 192 | 9.7 | 11.3 | 0.00 | 0.69 | 0.69 | 90 | 1015.0 |
| 20260505021002 | 3 | 94 | 6.4 | 9.7 | 0.18 | 0.69 | 0.69 | 91 | 1015.4 |
| 20260505020457 | 3 | 88 | 3.2 | 6.4 | 0.18 | 0.69 | 0.69 | 92 | 1015.1 |
| 20260505015954 | 3 | 134 | 3.2 | 6.4 | 0.00 | 0.66 | 0.66 | 92 | 1015.2 |
| 20260505015451 | 3 | 188 | 9.7 | 11.3 | 0.30 | 0.66 | 0.66 | 91 | 1015.6 |
| 20260505014948 | 3 | 193 | 4.8 | 11.3 | 0.13 | 0.64 | 0.64 | 90 | 1015.6 |
| 20260505014445 | 3 | 221 | 9.7 | 9.7 | 0.00 | 0.61 | 0.61 | 89 | 1015.4 |
| 20260505013942 | 3 | 206 | 3.2 | 4.8 | 0.00 | 0.61 | 0.61 | 89 | 1015.1 |
| 20260505013439 | 3 | 114 | 0.0 | 1.6 | 0.00 | 0.61 | 0.61 | 89 | 1015.5 |
| 20260505012937 | 3 | 96 | 0.0 | 0.0 | 0.00 | 0.61 | 0.61 | 90 | 1015.4 |
| 20260505012435 | 3 | 102 | 0.0 | 0.0 | 0.00 | 0.61 | 0.61 | 89 | 1015.1 |
| 20260505011931 | 3 | 123 | 0.0 | 1.6 | 0.18 | 0.61 | 0.61 | 88 | 1015.5 |
| 20260505011427 | 3 | 94 | 3.2 | 3.2 | 0.18 | 0.61 | 0.61 | 88 | 1015.2 |
| 20260505010924 | 3 | 98 | 3.2 | 6.4 | 0.00 | 0.58 | 0.58 | 89 | 1015.2 |
| 20260505010420 | 3 | 75 | 8.0 | 12.9 | 0.00 | 0.58 | 0.58 | 89 | 1015.4 |
| 20260505005916 | 4 | 114 | 3.2 | 6.4 | 0.00 | 0.58 | 0.58 | 89 | 1015.1 |
| 20260505005413 | 4 | 74 | 1.6 | 6.4 | 0.00 | 0.58 | 0.58 | 89 | 1015.4 |
| 20260505004911 | 4 | 77 | 6.4 | 9.7 | 0.00 | 0.58 | 0.58 | 89 | 1015.5 |
| 20260505004407 | 4 | 85 | 3.2 | 9.7 | 0.00 | 0.58 | 0.58 | 89 | 1015.2 |
| 20260505003904 | 5 | 77 | 3.2 | 11.3 | 0.00 | 0.58 | 0.58 | 90 | 1015.1 |
| 20260505003401 | 4 | 52 | 4.8 | 11.3 | 0.00 | 0.58 | 0.58 | 89 | 1015.4 |
| 20260505002857 | 5 | 56 | 3.2 | 11.3 | 0.00 | 0.58 | 0.58 | 87 | 1015.1 |
| 20260505002354 | 5 | 24 | 8.0 | 14.5 | 0.00 | 0.58 | 0.58 | 85 | 1015.2 |
| 20260505001853 | 5 | 3 | 9.7 | 14.5 | 0.13 | 0.58 | 0.58 | 86 | 1015.1 |
| 20260505001349 | 5 | 45 | 11.3 | 12.9 | 0.43 | 0.58 | 0.58 | 86 | 1015.2 |
| 20260505000846 | 5 | 67 | 6.4 | 11.3 | 0.89 | 0.56 | 0.56 | 85 | 1015.4 |
| 20260505000344 | 4 | 80 | 6.4 | 14.5 | 1.37 | 0.51 | 0.51 | 85 | 1015.5 |
| 20260504235840 | 3 | 158 | 1.6 | 4.8 | 0.89 | 0.38 | 0.38 | 85 | 1015.8 |
| 20260504235338 | 2 | 246 | 4.8 | 6.4 | 0.79 | 0.28 | 0.28 | 86 | 1015.9 |
| 20260504234834 | 3 | 252 | 3.2 | 6.4 | 0.61 | 0.23 | 0.23 | 84 | 1015.9 |
| 20260504234332 | 3 | 246 | 3.2 | 17.7 | 0.61 | 0.15 | 0.15 | 82 | 1016.2 |
| 20260504233828 | 5 | 187 | 9.7 | 17.7 | 0.61 | 0.10 | 0.10 | 76 | 1016.3 |
| 20260504233324 | 6 | 209 | 9.7 | 14.5 | 0.13 | 0.03 | 0.03 | 69 | 1015.9 |
| 20260504232821 | 8 | 7 | 8.0 | 12.9 | 0.00 | 0.00 | 0.00 | 57 | 1015.5 |
| 20260504232318 | 8 | 62 | 0.0 | 0.0 | 0.00 | 0.00 | 0.00 | 57 | 1015.5 |
| 20260504231815 | 8 | 91 | 0.0 | 0.0 | 0.00 | 0.00 | 0.00 | 57 | 1015.4 |
| 20260504231312 | 8 | 101 | 1.6 | 3.2 | 0.00 | 0.00 | 0.00 | 58 | 1015.4 |
| 20260504230808 | 8 | 107 | 1.6 | 4.8 | 0.00 | 0.00 | 0.00 | 58 | 1015.4 |
| 20260504230306 | 8 | 172 | 3.2 | 12.9 | 0.00 | 0.00 | 0.00 | 59 | 1015.0 |
| 20260504225804 | 7 | 138 | 6.4 | 11.3 | 0.00 | 0.00 | 0.00 | 59 | 1015.2 |
| 20260504225300 | 8 | 112 | 8.0 | 12.9 | 0.00 | 0.00 | 0.00 | 59 | 1015.4 |
| 20260504224757 | 8 | 95 | 6.4 | 11.3 | 0.00 | 0.00 | 0.00 | 59 | 1015.4 |
| 20260504224255 | 8 | 90 | 11.3 | 17.7 | 0.00 | 0.00 | 0.00 | 57 | 1015.5 |
| 20260504223751 | 10 | 107 | 8.0 | 16.1 | 0.00 | 0.00 | 0.00 | 50 | 1015.4 |
| 20260504223247 | 11 | 84 | 4.8 | 14.5 | 0.00 | 0.00 | 0.00 | 45 | 1015.4 |
| 20260504222744 | 10 | 106 | 4.8 | 9.7 | 0.00 | 0.00 | 0.00 | 46 | 1015.4 |
| 20260504222240 | 10 | 154 | 8.0 | 12.9 | 0.00 | 0.00 | 0.00 | 43 | 1015.4 |
| 20260504221738 | 11 | 108 | 6.4 | 9.7 | 0.00 | 0.00 | 0.00 | 41 | 1015.2 |
| 20260504221235 | 11 | 179 | 11.3 | 20.9 | 0.00 | 0.00 | 0.00 | 41 | 1015.5 |
| 20260504220731 | 11 | 64 | 9.7 | 14.5 | 0.00 | 0.00 | 0.00 | 44 | 1015.5 |
| 20260504220229 | 11 | 126 | 6.4 | 9.7 | 0.00 | 0.00 | 0.00 | 43 | 1015.4 |
| 20260504215726 | 10 | 25 | 1.6 | 6.4 | 0.00 | 0.00 | 0.00 | 43 | 1015.4 |
| 20260504215223 | 11 | 161 | 3.2 | 11.3 | 0.00 | 0.00 | 0.00 | 44 | 1015.6 |
| 20260504214718 | 11 | 83 | 3.2 | 9.7 | 0.00 | 0.00 | 0.00 | 43 | 1015.5 |
| 20260504214215 | 10 | 345 | 6.4 | 12.9 | 0.00 | 0.00 | 0.00 | 45 | 1015.6 |
| 20260504213712 | 11 | 18 | 6.4 | 17.7 | 0.00 | 0.00 | 0.00 | 42 | 1015.5 |
| 20260504213208 | 12 | 7 | 4.8 | 12.9 | 0.00 | 0.00 | 0.00 | 42 | 1015.9 |
| 20260504212705 | 11 | 355 | 6.4 | 11.3 | 0.00 | 0.00 | 0.00 | 44 | 1016.0 |
| 20260504212202 | 11 | 313 | 3.2 | 17.7 | 0.00 | 0.00 | 0.00 | 46 | 1015.8 |
| 20260504211659 | 11 | 243 | 6.4 | 11.3 | 0.00 | 0.00 | 0.00 | 46 | 1015.8 |
| 20260504211155 | 11 | 155 | 4.8 | 9.7 | 0.00 | 0.00 | 0.00 | 45 | 1016.0 |
| 20260504210653 | 11 | 347 | 3.2 | 14.5 | 0.00 | 0.00 | 0.00 | 44 | 1016.2 |
| 20260504210149 | 11 | 208 | 9.7 | 14.5 | 0.00 | 0.00 | 0.00 | 47 | 1016.0 |
| 20260504205647 | 11 | 203 | 9.7 | 17.7 | 0.00 | 0.00 | 0.00 | 44 | 1015.9 |
| 20260504205144 | 11 | 84 | 3.2 | 9.7 | 0.00 | 0.00 | 0.00 | 45 | 1016.0 |
| 20260504204643 | 10 | 170 | 4.8 | 9.7 | 0.00 | 0.00 | 0.00 | 46 | 1016.2 |
| 20260504204141 | 10 | 357 | 1.6 | 6.4 | 0.00 | 0.00 | 0.00 | 46 | 1016.4 |
| 20260504203639 | 9 | 114 | 4.8 | 9.7 | 0.00 | 0.00 | 0.00 | 49 | 1016.0 |
| 20260504203137 | 9 | 247 | 6.4 | 14.5 | 0.00 | 0.00 | 0.00 | 50 | 1016.4 |
| 20260504202637 | 9 | 230 | 6.4 | 16.1 | 0.00 | 0.00 | 0.00 | 51 | 1016.4 |
| 20260504202134 | 9 | 206 | 9.7 | 16.1 | 0.00 | 0.00 | 0.00 | 50 | 1016.7 |
| 20260504201631 | 9 | 219 | 11.3 | 17.7 | 0.00 | 0.00 | 0.00 | 52 | 1016.4 |
| 20260504201129 | 9 | 234 | 9.7 | 17.7 | 0.00 | 0.00 | 0.00 | 51 | 1016.6 |
| 20260504200626 | 10 | 208 | 11.3 | 16.1 | 0.00 | 0.00 | 0.00 | 51 | 1016.7 |
| 20260504200122 | 9 | 242 | 6.4 | 14.5 | 0.00 | 0.00 | 0.00 | 49 | 1016.4 |
| 20260504195618 | 8 | 145 | 8.0 | 11.3 | 0.00 | 0.00 | 0.00 | 49 | 1016.4 |
| 20260504195114 | 8 | 187 | 12.9 | 17.7 | 0.00 | 0.00 | 0.00 | 53 | 1016.7 |
| 20260504194611 | 7 | 190 | 9.7 | 14.5 | 0.00 | 0.00 | 0.00 | 54 | 1016.6 |
| 20260504194107 | 7 | 175 | 9.7 | 22.5 | 0.00 | 0.00 | 0.00 | 57 | 1016.6 |
| 20260504193603 | 7 | 184 | 16.1 | 24.1 | 0.00 | 0.00 | 0.00 | 57 | 1016.8 |
| 20260504193102 | 8 | 185 | 12.9 | 22.5 | 0.00 | 0.00 | 0.00 | 53 | 1016.8 |
| 20260504192600 | 8 | 185 | 16.1 | 22.5 | 0.00 | 0.00 | 0.00 | 55 | 1016.6 |
| 20260504192058 | 9 | 185 | 14.5 | 20.9 | 0.00 | 0.00 | 0.00 | 52 | 1016.8 |
| 20260504191556 | 8 | 204 | 14.5 | 20.9 | 0.00 | 0.00 | 0.00 | 49 | 1016.7 |
| 20260504191051 | 8 | 220 | 4.8 | 12.9 | 0.00 | 0.00 | 0.00 | 49 | 1016.4 |
| 20260504190548 | 8 | 267 | 6.4 | 11.3 | 0.00 | 0.00 | 0.00 | 49 | 1016.7 |
| 20260504190044 | 8 | 207 | 6.4 | 9.7 | 0.00 | 0.00 | 0.00 | 48 | 1016.7 |
| 20260504185541 | 8 | 221 | 8.0 | 16.1 | 0.00 | 0.00 | 0.00 | 50 | 1016.8 |
| 20260504185038 | 8 | 285 | 9.7 | 14.5 | 0.00 | 0.00 | 0.00 | 49 | 1016.9 |
| 20260504184533 | 8 | 230 | 8.0 | 11.3 | 0.00 | 0.00 | 0.00 | 49 | 1016.8 |
| 20260504184029 | 8 | 225 | 3.2 | 9.7 | 0.00 | 0.00 | 0.00 | 50 | 1016.8 |
| 20260504183526 | 9 | 266 | 11.3 | 12.9 | 0.00 | 0.00 | 0.00 | 48 | 1016.9 |
| 20260504183024 | 10 | 265 | 6.4 | 9.7 | 0.00 | 0.00 | 0.00 | 47 | 1016.8 |
| 20260504182521 | 10 | 262 | 4.8 | 11.3 | 0.00 | 0.00 | 0.00 | 47 | 1017.1 |
| 20260504182018 | 10 | 187 | 4.8 | 9.7 | 0.00 | 0.00 | 0.00 | 48 | 1017.2 |
| 20260504181515 | 9 | 293 | 6.4 | 12.9 | 0.00 | 0.00 | 0.00 | 50 | 1017.2 |
| 20260504181014 | 8 | 260 | 4.8 | 11.3 | 0.00 | 0.00 | 0.00 | 53 | 1017.1 |
| 20260504180512 | 8 | 257 | 6.4 | 14.5 | 0.00 | 0.00 | 0.00 | 53 | 1016.9 |
| 20260504180010 | 8 | 236 | 8.0 | 12.9 | 0.00 | 0.00 | 0.00 | 52 | 1017.1 |
| 20260504175507 | 8 | 150 | 3.2 | 6.4 | 0.00 | 0.00 | 0.00 | 52 | 1017.2 |
| 20260504175004 | 8 | 115 | 4.8 | 11.3 | 0.00 | 0.00 | 0.00 | 52 | 1016.9 |
| 20260504174502 | 9 | 236 | 4.8 | 20.9 | 0.00 | 0.00 | 0.00 | 52 | 1017.2 |
| 20260504173959 | 9 | 261 | 8.0 | 16.1 | 0.00 | 0.00 | 0.00 | 51 | 1017.1 |
| 20260504173455 | 10 | 59 | 3.2 | 14.5 | 0.00 | 0.00 | 0.00 | 49 | 1017.3 |
| 20260504172953 | 10 | 216 | 6.4 | 9.7 | 0.00 | 0.00 | 0.00 | 46 | 1017.1 |
| 20260504172448 | 10 | 221 | 3.2 | 6.4 | 0.00 | 0.00 | 0.00 | 46 | 1017.2 |
| 20260504171945 | 10 | 171 | 8.0 | 11.3 | 0.00 | 0.00 | 0.00 | 45 | 1017.2 |
| 20260504171443 | 11 | 228 | 4.8 | 12.9 | 0.00 | 0.00 | 0.00 | 44 | 1017.3 |
| 20260504170939 | 11 | 192 | 3.2 | 6.4 | 0.00 | 0.00 | 0.00 | 47 | 1017.3 |
| 20260504170436 | 10 | 111 | 1.6 | 4.8 | 0.00 | 0.00 | 0.00 | 47 | 1017.2 |
| 20260504160355 | 7 | 203 | 9.7 | 11.3 | 0.00 | 0.00 | 0.00 | 55 | 1017.1 |
| 20260504150820 | 8 | 206 | 8.0 | 14.5 | 0.00 | 0.00 | 0.00 | 52 | 1017.9 |
| 20260504150316 | 8 | 180 | 8.0 | 12.9 | 0.00 | 0.00 | 0.00 | 52 | 1018.0 |